Time;durP1;ratioP1;P1;durP2;ratioP2;P2;SDS_P1;SDS_P2;PMS_P1;PMS_P2;Temp;Humidity;BMP_temperature;BMP_pressure;BME280_temperature;BME280_humidity;BME280_pressure;Samples;Min_cycle;Max_cycle;Signal;HPM_P1;HPM_P2
2021/12/11 00:01:22;;;;;;;;;;;2.70;99.90;;;;;;5047279;28;19932;-81
2021/12/11 00:03:51;;;;;;;;;;;2.70;99.90;;;;;;5049384;28;19933;-81
2021/12/11 00:06:20;;;;;;;;;;;2.70;99.90;;;;;;5057806;28;19962;-81
2021/12/11 00:08:49;;;;;;;;;;;2.70;99.90;;;;;;5046958;28;19987;-80
2021/12/11 00:11:18;;;;;;;;;;;2.70;99.90;;;;;;5046917;28;20345;-81
2021/12/11 00:13:47;;;;;;;;;;;2.70;99.90;;;;;;5046737;28;19925;-80
2021/12/11 00:16:17;;;;;;;;;;;2.70;99.90;;;;;;5049982;28;19924;-80
2021/12/11 00:18:45;;;;;;;;;;;2.70;99.90;;;;;;5050142;28;19925;-81
2021/12/11 00:21:14;;;;;;;;;;;2.70;99.90;;;;;;5050567;28;19931;-81
2021/12/11 00:23:42;;;;;;;;;;;2.80;99.90;;;;;;5049586;28;19925;-81
2021/12/11 00:26:11;;;;;;;;;;;2.70;99.90;;;;;;5045162;28;19956;-80
2021/12/11 00:28:46;;;;;;;;;;;2.70;99.90;;;;;;5044300;28;20461;-80
2021/12/11 00:31:13;;;;;;;;;;;2.80;99.90;;;;;;5045379;28;19925;-81
2021/12/11 00:33:42;;;;;;;;;;;2.70;99.90;;;;;;5041934;28;19965;-80
2021/12/11 00:36:10;;;;;;;;;;;2.70;99.90;;;;;;5046093;28;20376;-81
2021/12/11 00:38:38;;;;;;;;;;;2.70;99.90;;;;;;5052018;28;20497;-81
2021/12/11 00:41:07;;;;;;;;;;;2.70;99.90;;;;;;5047095;28;19924;-80
2021/12/11 00:43:35;;;;;;;;;;;2.70;99.90;;;;;;5049251;28;19935;-81
2021/12/11 00:46:04;;;;;;;;;;;2.70;99.90;;;;;;5063738;28;19987;-81
2021/12/11 00:48:32;;;;;;;;;;;2.70;99.90;;;;;;5048398;28;20399;-81
2021/12/11 00:51:04;;;;;;;;;;;2.70;99.90;;;;;;5050168;28;20387;-81
2021/12/11 00:53:36;;;;;;;;;;;2.70;99.90;;;;;;5051393;28;19929;-81
2021/12/11 00:56:05;;;;;;;;;;;2.70;99.90;;;;;;5045870;28;19955;-81
2021/12/11 00:58:35;;;;;;;;;;;2.80;99.90;;;;;;5045270;28;19929;-80
2021/12/11 01:01:04;;;;;;;;;;;2.80;99.90;;;;;;5056216;28;19925;-81
2021/12/11 01:03:34;;;;;;;;;;;2.80;99.90;;;;;;5044439;28;19925;-81
2021/12/11 01:06:06;;;;;;;;;;;2.70;99.90;;;;;;5043602;28;19929;-80
2021/12/11 01:08:37;;;;;;;;;;;2.80;99.90;;;;;;5046647;28;19925;-81
2021/12/11 01:11:07;;;;;;;;;;;2.70;99.90;;;;;;5046776;28;20422;-81
2021/12/11 01:13:39;;;;;;;;;;;2.70;99.90;;;;;;5046708;28;19925;-80
2021/12/11 01:16:11;;;;;;;;;;;2.80;99.90;;;;;;5044668;28;19925;-81
2021/12/11 01:18:41;;;;;;;;;;;2.80;99.90;;;;;;5039783;28;20315;-80
2021/12/11 01:21:27;;;;;;;;;;;2.70;99.90;;;;;;5052121;28;19952;-81
2021/12/11 01:24:11;;;;;;;;;;;2.80;99.90;;;;;;5048836;28;20370;-80
2021/12/11 01:26:40;;;;;;;;;;;2.80;99.90;;;;;;5041162;28;20359;-80
2021/12/11 01:29:07;;;;;;;;;;;2.80;99.90;;;;;;5046708;28;19972;-81
2021/12/11 01:31:35;;;;;;;;;;;2.80;99.90;;;;;;5045163;28;19945;-81
2021/12/11 01:34:02;;;;;;;;;;;2.80;99.90;;;;;;5044164;28;19969;-81
2021/12/11 01:36:32;;;;;;;;;;;2.80;99.90;;;;;;5046036;28;20403;-80
2021/12/11 01:39:01;;;;;;;;;;;2.80;99.90;;;;;;5048825;28;19925;-80
2021/12/11 01:41:28;;;;;;;;;;;2.70;99.90;;;;;;5050269;22;19926;-79
2021/12/11 01:43:57;;;;;;;;;;;2.80;99.90;;;;;;5034598;28;19925;-79
2021/12/11 01:46:26;;;;;;;;;;;2.80;99.90;;;;;;5103175;22;20031;-79
2021/12/11 01:48:58;;;;;;;;;;;2.80;99.90;;;;;;5217873;22;19923;-80
2021/12/11 01:54:05;;;;;;;;;;;2.80;99.90;;;;;;5011034;28;19930;-80
2021/12/11 01:56:33;;;;;;;;;;;2.80;99.90;;;;;;5004956;28;19933;-80
2021/12/11 01:59:02;;;;;;;;;;;2.80;99.90;;;;;;5023698;28;19926;-81
2021/12/11 02:01:32;;;;;;;;;;;2.80;99.90;;;;;;5012001;28;20016;-80
2021/12/11 02:04:00;;;;;;;;;;;2.80;99.90;;;;;;5017383;28;20391;-81
2021/12/11 02:06:28;;;;;;;;;;;2.80;99.90;;;;;;5022519;28;19925;-81
2021/12/11 02:08:55;;;;;;;;;;;2.80;99.90;;;;;;5027200;28;20032;-80
2021/12/11 02:11:25;;;;;;;;;;;2.80;99.90;;;;;;5006324;28;19933;-80
2021/12/11 02:13:57;;;;;;;;;;;2.80;99.90;;;;;;5010527;28;19957;-81
2021/12/11 02:16:25;;;;;;;;;;;2.80;99.90;;;;;;5025613;28;19979;-80
2021/12/11 02:18:54;;;;;;;;;;;2.80;99.90;;;;;;5010947;28;19983;-80
2021/12/11 02:21:25;;;;;;;;;;;2.80;99.90;;;;;;5006348;28;19930;-80
2021/12/11 02:23:57;;;;;;;;;;;2.80;99.90;;;;;;5010819;28;19929;-82
2021/12/11 02:26:26;;;;;;;;;;;2.80;99.90;;;;;;5009082;28;19932;-81
2021/12/11 02:28:58;;;;;;;;;;;2.80;99.90;;;;;;5012018;28;19932;-81
2021/12/11 02:31:28;;;;;;;;;;;2.80;99.90;;;;;;5039389;28;19957;-80
2021/12/11 02:33:57;;;;;;;;;;;2.80;99.90;;;;;;5004187;28;20020;-81
2021/12/11 02:36:26;;;;;;;;;;;2.80;99.90;;;;;;5024981;28;20476;-81
2021/12/11 02:38:59;;;;;;;;;;;2.70;99.90;;;;;;5010518;28;19932;-81
2021/12/11 02:41:28;;;;;;;;;;;2.70;99.90;;;;;;5023402;28;19967;-80
2021/12/11 02:43:57;;;;;;;;;;;2.80;99.90;;;;;;5027534;28;19960;-81
2021/12/11 02:46:25;;;;;;;;;;;2.70;99.90;;;;;;5047928;28;20028;-80
2021/12/11 02:48:56;;;;;;;;;;;2.80;99.90;;;;;;5014878;28;20475;-80
2021/12/11 02:51:30;;;;;;;;;;;2.80;99.90;;;;;;5012705;28;19933;-81
2021/12/11 02:54:01;;;;;;;;;;;2.80;99.90;;;;;;5010896;28;19936;-80
2021/12/11 02:56:32;;;;;;;;;;;2.70;99.90;;;;;;5008134;28;19933;-81
2021/12/11 02:59:01;;;;;;;;;;;2.70;99.90;;;;;;5012147;28;20370;-80
2021/12/11 03:01:30;;;;;;;;;;;2.80;99.90;;;;;;5006441;28;19933;-81
2021/12/11 03:04:03;;;;;;;;;;;2.80;99.90;;;;;;5009930;28;20307;-81
2021/12/11 03:06:38;;;;;;;;;;;2.80;99.90;;;;;;5028941;28;20395;-81
2021/12/11 03:09:07;;;;;;;;;;;2.80;99.90;;;;;;5007551;28;20368;-80
2021/12/11 03:11:34;;;;;;;;;;;2.80;99.90;;;;;;5026379;28;19925;-81
2021/12/11 03:14:03;;;;;;;;;;;2.70;99.90;;;;;;5011428;28;19932;-81
2021/12/11 03:16:32;;;;;;;;;;;2.80;99.90;;;;;;5009965;28;20423;-79
2021/12/11 03:19:00;;;;;;;;;;;2.70;99.90;;;;;;5012397;28;20383;-80
2021/12/11 03:21:27;;;;;;;;;;;2.80;99.90;;;;;;5012469;28;19948;-81
2021/12/11 03:23:54;;;;;;;;;;;2.70;99.90;;;;;;5005919;28;19932;-81
2021/12/11 03:26:24;;;;;;;;;;;2.70;99.90;;;;;;5013644;28;20304;-80
2021/12/11 03:28:51;;;;;;;;;;;2.70;99.90;;;;;;5010191;28;19925;-80
2021/12/11 03:31:19;;;;;;;;;;;2.80;99.90;;;;;;5011871;28;19937;-80
2021/12/11 03:33:47;;;;;;;;;;;2.80;99.90;;;;;;5004691;28;20008;-80
2021/12/11 03:36:16;;;;;;;;;;;2.80;99.90;;;;;;5010598;28;19926;-81
2021/12/11 03:38:46;;;;;;;;;;;2.70;99.90;;;;;;5022737;28;19929;-79
2021/12/11 03:41:13;;;;;;;;;;;2.80;99.90;;;;;;5006146;28;19926;-80
2021/12/11 03:43:42;;;;;;;;;;;2.70;99.90;;;;;;5011825;28;20017;-81
2021/12/11 03:46:11;;;;;;;;;;;2.70;99.90;;;;;;5003154;28;19930;-81
2021/12/11 03:48:39;;;;;;;;;;;2.70;99.90;;;;;;5007527;28;19933;-80
2021/12/11 03:51:10;;;;;;;;;;;2.80;99.90;;;;;;5028766;28;19925;-80
2021/12/11 03:53:37;;;;;;;;;;;2.70;99.90;;;;;;5011127;28;19926;-80
2021/12/11 03:56:06;;;;;;;;;;;2.70;99.90;;;;;;5026095;28;19925;-80
2021/12/11 03:58:33;;;;;;;;;;;2.70;99.90;;;;;;5041064;28;20306;-80
2021/12/11 04:01:06;;;;;;;;;;;2.80;99.90;;;;;;5026700;28;20414;-80
2021/12/11 04:03:34;;;;;;;;;;;2.70;99.90;;;;;;5008565;28;19976;-81
2021/12/11 04:06:02;;;;;;;;;;;2.70;99.90;;;;;;5012413;28;20447;-80
2021/12/11 04:08:34;;;;;;;;;;;2.70;99.90;;;;;;5044387;28;19925;-80
2021/12/11 04:11:01;;;;;;;;;;;2.70;99.90;;;;;;5005804;28;19925;-80
2021/12/11 04:13:28;;;;;;;;;;;2.70;99.90;;;;;;5009705;28;20438;-81
2021/12/11 04:15:55;;;;;;;;;;;2.60;99.90;;;;;;5004385;28;19961;-80
2021/12/11 04:18:24;;;;;;;;;;;2.70;99.90;;;;;;5008258;28;20288;-81
2021/12/11 04:20:51;;;;;;;;;;;2.70;99.90;;;;;;5024652;28;19941;-81
2021/12/11 04:23:18;;;;;;;;;;;2.70;99.90;;;;;;5042570;28;19936;-80
2021/12/11 04:25:47;;;;;;;;;;;2.70;99.90;;;;;;5010669;28;19979;-80
2021/12/11 04:28:16;;;;;;;;;;;2.70;99.90;;;;;;5025976;28;19925;-80
2021/12/11 04:30:43;;;;;;;;;;;2.70;99.90;;;;;;5005925;28;20403;-80
2021/12/11 04:33:11;;;;;;;;;;;2.70;99.90;;;;;;5007041;28;20012;-80
2021/12/11 04:35:41;;;;;;;;;;;2.70;99.90;;;;;;5022228;28;19934;-80
2021/12/11 04:38:09;;;;;;;;;;;2.70;99.90;;;;;;5025265;28;20281;-80
2021/12/11 04:40:37;;;;;;;;;;;2.70;99.90;;;;;;5022706;28;19988;-80
2021/12/11 04:43:07;;;;;;;;;;;2.70;99.90;;;;;;5012702;28;19925;-81
2021/12/11 04:45:37;;;;;;;;;;;2.70;99.90;;;;;;5010488;28;19933;-81
2021/12/11 04:48:11;;;;;;;;;;;2.70;99.90;;;;;;5022258;28;19933;-81
2021/12/11 04:50:46;;;;;;;;;;;2.70;99.90;;;;;;5012596;28;19929;-80
2021/12/11 04:53:31;;;;;;;;;;;2.70;99.90;;;;;;5009655;28;19925;-80
2021/12/11 04:56:19;;;;;;;;;;;2.60;99.90;;;;;;5013753;28;19936;-80
2021/12/11 04:59:00;;;;;;;;;;;2.70;99.90;;;;;;5012600;28;19941;-80
2021/12/11 05:01:46;;;;;;;;;;;2.70;99.90;;;;;;5013583;28;20387;-80
2021/12/11 05:07:23;;;;;;;;;;;2.70;99.90;;;;;;5098796;27;20281;-81
2021/12/11 05:09:56;;;;;;;;;;;2.70;99.90;;;;;;5081159;28;19928;-80
2021/12/11 05:12:33;;;;;;;;;;;2.70;99.90;;;;;;5082651;28;20437;-80
2021/12/11 05:15:00;;;;;;;;;;;2.70;99.90;;;;;;5095767;28;19928;-80
2021/12/11 05:17:27;;;;;;;;;;;2.70;99.90;;;;;;5079335;28;19924;-80
2021/12/11 05:19:54;;;;;;;;;;;2.70;99.90;;;;;;5081117;28;19924;-80
2021/12/11 05:22:22;;;;;;;;;;;2.70;99.90;;;;;;5072841;28;19936;-80
2021/12/11 05:24:51;;;;;;;;;;;2.70;99.90;;;;;;5083856;28;19931;-81
2021/12/11 05:27:18;;;;;;;;;;;2.70;99.90;;;;;;5082248;28;19924;-80
2021/12/11 05:29:45;;;;;;;;;;;2.70;99.90;;;;;;5084003;28;20013;-80
2021/12/11 05:32:14;;;;;;;;;;;2.70;99.90;;;;;;5079222;28;19924;-80
2021/12/11 05:34:42;;;;;;;;;;;2.70;99.90;;;;;;5074740;28;19932;-80
2021/12/11 05:37:09;;;;;;;;;;;2.60;99.90;;;;;;5078536;28;19970;-80
2021/12/11 05:39:38;;;;;;;;;;;2.70;99.90;;;;;;5074720;28;19925;-81
2021/12/11 05:42:05;;;;;;;;;;;2.70;99.90;;;;;;5075414;28;20443;-80
2021/12/11 05:44:32;;;;;;;;;;;2.70;99.90;;;;;;5082257;28;19924;-80
2021/12/11 05:46:59;;;;;;;;;;;2.70;99.90;;;;;;5077551;28;20452;-80
2021/12/11 05:49:28;;;;;;;;;;;2.60;99.90;;;;;;5077534;28;20457;-80
2021/12/11 05:51:58;;;;;;;;;;;2.60;99.90;;;;;;5077666;28;19932;-80
2021/12/11 05:54:26;;;;;;;;;;;2.60;99.90;;;;;;5075715;28;20439;-80
2021/12/11 05:56:57;;;;;;;;;;;2.60;99.90;;;;;;5079225;28;20023;-80
2021/12/11 05:59:24;;;;;;;;;;;2.60;99.90;;;;;;5089390;28;19928;-81
2021/12/11 06:01:54;;;;;;;;;;;2.60;99.90;;;;;;5079055;28;19958;-80
2021/12/11 06:04:23;;;;;;;;;;;2.60;99.90;;;;;;5082580;28;19972;-80
2021/12/11 06:06:51;;;;;;;;;;;2.60;99.90;;;;;;5082492;28;20409;-80
2021/12/11 06:09:19;;;;;;;;;;;2.60;99.90;;;;;;5073996;28;19931;-81
2021/12/11 06:11:48;;;;;;;;;;;2.60;99.90;;;;;;5079653;28;20023;-80
2021/12/11 06:14:17;;;;;;;;;;;2.60;99.90;;;;;;5077646;28;19928;-80
2021/12/11 06:16:44;;;;;;;;;;;2.60;99.90;;;;;;5068566;28;19979;-81
2021/12/11 06:19:11;;;;;;;;;;;2.60;99.90;;;;;;5061687;28;20394;-80
2021/12/11 06:21:38;;;;;;;;;;;2.60;99.90;;;;;;5066380;28;19928;-80
2021/12/11 06:24:06;;;;;;;;;;;2.70;99.90;;;;;;5060735;28;19971;-80
2021/12/11 06:26:33;;;;;;;;;;;2.60;99.90;;;;;;5063279;28;19924;-80
2021/12/11 06:29:00;;;;;;;;;;;2.60;99.90;;;;;;5062788;28;19929;-80
2021/12/11 06:31:28;;;;;;;;;;;2.60;99.90;;;;;;5052670;28;19928;-80
2021/12/11 06:33:55;;;;;;;;;;;2.60;99.90;;;;;;5075013;28;19925;-81
2021/12/11 06:36:23;;;;;;;;;;;2.60;99.90;;;;;;5066714;28;19928;-80
2021/12/11 06:38:51;;;;;;;;;;;2.60;99.90;;;;;;5061792;28;19924;-80
2021/12/11 06:41:21;;;;;;;;;;;2.60;99.90;;;;;;5062068;28;20095;-80
2021/12/11 06:43:49;;;;;;;;;;;2.60;99.90;;;;;;5066222;28;21526;-80
2021/12/11 06:46:16;;;;;;;;;;;2.60;99.90;;;;;;5065113;28;20049;-80
2021/12/11 06:48:45;;;;;;;;;;;2.50;99.90;;;;;;5061737;28;19925;-80
2021/12/11 06:51:12;;;;;;;;;;;2.50;99.90;;;;;;5064124;28;19951;-80
2021/12/11 06:53:41;;;;;;;;;;;2.50;99.90;;;;;;5065997;28;19928;-80
2021/12/11 06:56:08;;;;;;;;;;;2.50;99.90;;;;;;5066983;28;19985;-80
2021/12/11 06:58:35;;;;;;;;;;;2.50;99.90;;;;;;5078194;28;19970;-80
2021/12/11 07:01:03;;;;;;;;;;;2.50;99.90;;;;;;5068313;28;19960;-80
2021/12/11 07:03:30;;;;;;;;;;;2.50;99.90;;;;;;5068877;28;19932;-80
2021/12/11 07:05:58;;;;;;;;;;;2.50;99.90;;;;;;5060661;28;19979;-80
2021/12/11 07:08:27;;;;;;;;;;;2.50;99.90;;;;;;5060181;28;19929;-81
2021/12/11 07:10:54;;;;;;;;;;;2.50;99.90;;;;;;5060237;28;19924;-80
2021/12/11 07:13:23;;;;;;;;;;;2.50;99.90;;;;;;5065533;28;20313;-80
2021/12/11 07:15:52;;;;;;;;;;;2.50;99.90;;;;;;5065709;28;20029;-80
2021/12/11 07:18:19;;;;;;;;;;;2.50;99.90;;;;;;5061628;28;19924;-80
2021/12/11 07:20:46;;;;;;;;;;;2.50;99.90;;;;;;5061405;28;19925;-80
2021/12/11 07:23:14;;;;;;;;;;;2.50;99.90;;;;;;5058722;28;19924;-80
2021/12/11 07:25:43;;;;;;;;;;;2.50;99.90;;;;;;5056216;28;19979;-80
2021/12/11 07:28:11;;;;;;;;;;;2.50;99.90;;;;;;5057901;28;19986;-80
2021/12/11 07:30:39;;;;;;;;;;;2.50;99.90;;;;;;5061536;28;19925;-80
2021/12/11 07:33:07;;;;;;;;;;;2.50;99.90;;;;;;5060902;28;19931;-80
2021/12/11 07:35:34;;;;;;;;;;;2.50;99.90;;;;;;5059650;28;19953;-80
2021/12/11 07:38:01;;;;;;;;;;;2.50;99.90;;;;;;5057946;28;19954;-80
2021/12/11 07:40:31;;;;;;;;;;;2.50;99.90;;;;;;5064216;28;19945;-81
2021/12/11 07:42:58;;;;;;;;;;;2.50;99.90;;;;;;5066505;28;19925;-80
2021/12/11 07:45:26;;;;;;;;;;;2.50;99.90;;;;;;5061137;28;19925;-80
2021/12/11 07:47:53;;;;;;;;;;;2.50;99.90;;;;;;5058953;28;19936;-80
2021/12/11 07:50:21;;;;;;;;;;;2.50;99.90;;;;;;5057899;28;19925;-80
2021/12/11 07:52:48;;;;;;;;;;;2.50;99.90;;;;;;5063043;28;19988;-80
2021/12/11 07:55:15;;;;;;;;;;;2.50;99.90;;;;;;5061594;28;19931;-80
2021/12/11 07:57:44;;;;;;;;;;;2.40;99.90;;;;;;5065073;28;19982;-80
2021/12/11 08:00:13;;;;;;;;;;;2.40;99.90;;;;;;5076529;28;19939;-80
2021/12/11 08:02:43;;;;;;;;;;;2.50;99.90;;;;;;5062879;28;20305;-80
2021/12/11 08:05:10;;;;;;;;;;;2.50;99.90;;;;;;5062949;28;19931;-81
2021/12/11 08:07:37;;;;;;;;;;;2.40;99.90;;;;;;5062814;28;19925;-80
2021/12/11 08:10:05;;;;;;;;;;;2.40;99.90;;;;;;5068030;28;19925;-81
2021/12/11 08:12:32;;;;;;;;;;;2.40;99.90;;;;;;5066226;28;19950;-81
2021/12/11 08:15:00;;;;;;;;;;;2.40;99.90;;;;;;5063101;28;19964;-80
2021/12/11 08:17:27;;;;;;;;;;;2.40;99.90;;;;;;5069710;28;19970;-81
2021/12/11 08:19:54;;;;;;;;;;;2.40;99.90;;;;;;5061991;28;20425;-80
2021/12/11 08:22:22;;;;;;;;;;;2.40;99.90;;;;;;5061778;28;19978;-80
2021/12/11 08:24:49;;;;;;;;;;;2.40;99.90;;;;;;5059408;28;19951;-81
2021/12/11 08:27:19;;;;;;;;;;;2.40;99.90;;;;;;5056207;28;19986;-81
2021/12/11 08:29:47;;;;;;;;;;;2.40;99.90;;;;;;5060233;28;19936;-81
2021/12/11 08:32:17;;;;;;;;;;;2.40;99.90;;;;;;5064152;28;19955;-80
2021/12/11 08:34:44;;;;;;;;;;;2.40;99.90;;;;;;5064679;28;19924;-80
2021/12/11 08:37:13;;;;;;;;;;;2.40;99.90;;;;;;5064560;28;19925;-80
2021/12/11 08:39:40;;;;;;;;;;;2.40;99.90;;;;;;5058947;28;19932;-80
2021/12/11 08:42:09;;;;;;;;;;;2.40;99.90;;;;;;5064492;28;19978;-80
2021/12/11 08:44:38;;;;;;;;;;;2.40;99.90;;;;;;5064765;28;19924;-80
2021/12/11 08:47:07;;;;;;;;;;;2.40;99.90;;;;;;5063543;28;19931;-80
2021/12/11 08:49:36;;;;;;;;;;;2.40;99.90;;;;;;5062495;28;20306;-81
2021/12/11 08:52:06;;;;;;;;;;;2.40;99.90;;;;;;5065265;28;20018;-80
2021/12/11 08:54:33;;;;;;;;;;;2.40;99.90;;;;;;5063653;28;19943;-80
2021/12/11 08:57:04;;;;;;;;;;;2.40;99.90;;;;;;5066840;28;19925;-80
2021/12/11 08:59:32;;;;;;;;;;;2.40;99.90;;;;;;5056619;28;19938;-80
2021/12/11 09:02:00;;;;;;;;;;;2.40;99.90;;;;;;5054610;28;19956;-81
2021/12/11 09:04:29;;;;;;;;;;;2.40;99.90;;;;;;5065960;28;19925;-81
2021/12/11 09:07:00;;;;;;;;;;;2.40;99.90;;;;;;5057793;28;19932;-80
2021/12/11 09:09:29;;;;;;;;;;;2.40;99.90;;;;;;5063106;28;19924;-80
2021/12/11 09:11:58;;;;;;;;;;;2.40;99.90;;;;;;5065214;28;19925;-80
2021/12/11 09:14:27;;;;;;;;;;;2.40;99.90;;;;;;5059134;28;20369;-81
2021/12/11 09:16:56;;;;;;;;;;;2.40;99.90;;;;;;5059893;28;19929;-80
2021/12/11 09:19:24;;;;;;;;;;;2.40;99.90;;;;;;5052941;28;20401;-80
2021/12/11 09:21:53;;;;;;;;;;;2.40;99.90;;;;;;5058155;28;19939;-80
2021/12/11 09:24:24;;;;;;;;;;;2.40;99.90;;;;;;5065205;28;20382;-80
2021/12/11 09:26:53;;;;;;;;;;;2.40;99.90;;;;;;5079505;28;19924;-80
2021/12/11 09:29:23;;;;;;;;;;;2.40;99.90;;;;;;5062359;28;19998;-81
2021/12/11 09:31:57;;;;;;;;;;;2.40;99.90;;;;;;5061588;28;20011;-81
2021/12/11 09:34:27;;;;;;;;;;;2.40;99.90;;;;;;5065774;28;19925;-80
2021/12/11 09:36:57;;;;;;;;;;;2.40;99.90;;;;;;5056083;28;20012;-80
2021/12/11 09:39:27;;;;;;;;;;;2.40;99.90;;;;;;5056729;28;19925;-80
2021/12/11 09:41:54;;;;;;;;;;;2.40;99.90;;;;;;5056396;28;20389;-81
2021/12/11 09:44:24;;;;;;;;;;;2.40;99.90;;;;;;5045649;28;20465;-80
2021/12/11 09:46:53;;;;;;;;;;;2.40;99.90;;;;;;5069529;28;19932;-80
2021/12/11 09:49:22;;;;;;;;;;;2.40;99.90;;;;;;5053050;28;19932;-80
2021/12/11 09:51:50;;;;;;;;;;;2.40;99.90;;;;;;5054541;28;19928;-80
2021/12/11 09:54:18;;;;;;;;;;;2.40;99.90;;;;;;5067799;28;19925;-80
2021/12/11 09:56:47;;;;;;;;;;;2.40;99.90;;;;;;5075908;28;19924;-81
2021/12/11 09:59:16;;;;;;;;;;;2.40;99.90;;;;;;5059868;28;20406;-80
2021/12/11 10:01:46;;;;;;;;;;;2.40;99.90;;;;;;5061879;28;19928;-80
2021/12/11 10:04:16;;;;;;;;;;;2.40;99.90;;;;;;5056077;28;19928;-80
2021/12/11 10:06:51;;;;;;;;;;;2.40;99.90;;;;;;5053630;28;20011;-80
2021/12/11 10:09:21;;;;;;;;;;;2.40;99.90;;;;;;5053078;28;19933;-80
2021/12/11 10:11:51;;;;;;;;;;;2.40;99.90;;;;;;5058844;28;19931;-80
2021/12/11 10:14:19;;;;;;;;;;;2.40;99.90;;;;;;5069526;28;19925;-80
2021/12/11 10:16:50;;;;;;;;;;;2.40;99.90;;;;;;5064128;28;19932;-80
2021/12/11 10:19:19;;;;;;;;;;;2.40;99.90;;;;;;5071586;28;20367;-80
2021/12/11 10:21:48;;;;;;;;;;;2.50;99.90;;;;;;5065610;28;19932;-80
2021/12/11 10:24:16;;;;;;;;;;;2.40;99.90;;;;;;5071003;28;19932;-80
2021/12/11 10:26:43;;;;;;;;;;;2.40;99.90;;;;;;5067440;28;19951;-80
2021/12/11 10:29:12;;;;;;;;;;;2.40;99.90;;;;;;5063703;28;19951;-80
2021/12/11 10:31:40;;;;;;;;;;;2.40;99.90;;;;;;5080805;28;19932;-80
2021/12/11 10:34:10;;;;;;;;;;;2.40;99.90;;;;;;5066418;28;20391;-80
2021/12/11 10:36:38;;;;;;;;;;;2.40;99.90;;;;;;5065153;28;20683;-80
2021/12/11 10:39:08;;;;;;;;;;;2.40;99.90;;;;;;5062734;28;19925;-80
2021/12/11 10:41:35;;;;;;;;;;;2.40;99.90;;;;;;5063129;28;19932;-80
2021/12/11 10:44:04;;;;;;;;;;;2.40;99.90;;;;;;5064513;28;19932;-80
2021/12/11 10:46:32;;;;;;;;;;;2.50;99.90;;;;;;5082298;28;19931;-80
2021/12/11 10:49:02;;;;;;;;;;;2.40;99.90;;;;;;5068905;28;19982;-80
2021/12/11 10:51:32;;;;;;;;;;;2.40;99.90;;;;;;5054712;28;19928;-80
2021/12/11 10:53:59;;;;;;;;;;;2.40;99.90;;;;;;5069150;28;19925;-80
2021/12/11 10:56:27;;;;;;;;;;;2.40;99.90;;;;;;5063421;28;19967;-80
2021/12/11 10:58:55;;;;;;;;;;;2.40;99.90;;;;;;5064946;28;19932;-80
2021/12/11 11:01:27;;;;;;;;;;;2.50;99.90;;;;;;5060782;28;20424;-80
2021/12/11 11:03:56;;;;;;;;;;;2.50;99.90;;;;;;5082392;28;20345;-80
2021/12/11 11:06:23;;;;;;;;;;;2.40;99.90;;;;;;5059155;28;19928;-79
2021/12/11 11:08:51;;;;;;;;;;;2.40;99.90;;;;;;5067978;28;19939;-79
2021/12/11 11:11:19;;;;;;;;;;;2.40;99.90;;;;;;5064480;28;19925;-80
2021/12/11 11:13:46;;;;;;;;;;;2.50;99.90;;;;;;5079576;28;20345;-79
2021/12/11 11:16:13;;;;;;;;;;;2.40;99.90;;;;;;5071879;28;19955;-79
2021/12/11 11:18:40;;;;;;;;;;;2.40;99.90;;;;;;5068061;28;19978;-79
2021/12/11 11:21:09;;;;;;;;;;;2.40;99.90;;;;;;5064396;28;19924;-80
2021/12/11 11:23:36;;;;;;;;;;;2.40;99.90;;;;;;5059366;28;19925;-80
2021/12/11 11:26:06;;;;;;;;;;;2.40;99.90;;;;;;5058594;28;19932;-79
2021/12/11 11:28:34;;;;;;;;;;;2.40;99.90;;;;;;5064362;28;19951;-80
2021/12/11 11:31:03;;;;;;;;;;;2.50;99.90;;;;;;5059515;28;19954;-79
2021/12/11 11:33:31;;;;;;;;;;;2.40;99.90;;;;;;5061838;28;19939;-80
2021/12/11 11:35:59;;;;;;;;;;;2.50;99.90;;;;;;5065423;28;19931;-80
2021/12/11 11:38:27;;;;;;;;;;;2.40;99.90;;;;;;5064640;28;19924;-80
2021/12/11 11:40:58;;;;;;;;;;;2.40;99.90;;;;;;5074435;28;19924;-80
2021/12/11 11:43:26;;;;;;;;;;;2.50;99.90;;;;;;5066920;28;19924;-80
2021/12/11 11:45:53;;;;;;;;;;;2.40;99.90;;;;;;5066688;28;19928;-80
2021/12/11 11:48:21;;;;;;;;;;;2.40;99.90;;;;;;5056086;28;19931;-80
2021/12/11 11:50:49;;;;;;;;;;;2.40;99.90;;;;;;5059561;28;19924;-81
2021/12/11 11:53:19;;;;;;;;;;;2.40;99.90;;;;;;5062341;28;19925;-80
2021/12/11 11:55:47;;;;;;;;;;;2.50;99.90;;;;;;5070131;28;19931;-80
2021/12/11 11:58:15;;;;;;;;;;;2.40;99.90;;;;;;5061128;28;20277;-80
2021/12/11 12:00:46;;;;;;;;;;;2.40;99.90;;;;;;5069319;28;19932;-80
2021/12/11 12:03:14;;;;;;;;;;;2.40;99.90;;;;;;5063989;28;19928;-80
2021/12/11 12:05:42;;;;;;;;;;;2.40;99.90;;;;;;5063379;28;20028;-80
2021/12/11 12:08:10;;;;;;;;;;;2.40;99.90;;;;;;5061815;28;19955;-80
2021/12/11 12:10:38;;;;;;;;;;;2.40;99.90;;;;;;5062397;28;19932;-80
2021/12/11 12:13:07;;;;;;;;;;;2.40;99.90;;;;;;5059996;28;19925;-80
2021/12/11 12:15:36;;;;;;;;;;;2.40;99.90;;;;;;5062047;28;20457;-80
2021/12/11 12:18:04;;;;;;;;;;;2.40;99.90;;;;;;5060791;28;19959;-80
2021/12/11 12:20:31;;;;;;;;;;;2.40;99.90;;;;;;5063587;28;19986;-80
2021/12/11 12:22:58;;;;;;;;;;;2.40;99.90;;;;;;5060452;28;20551;-81
2021/12/11 12:25:25;;;;;;;;;;;2.40;99.90;;;;;;5051559;28;19924;-80
2021/12/11 12:27:52;;;;;;;;;;;2.40;99.90;;;;;;5063297;28;19932;-81
2021/12/11 12:30:21;;;;;;;;;;;2.40;99.90;;;;;;5059900;28;19928;-80
2021/12/11 12:32:51;;;;;;;;;;;2.40;99.90;;;;;;5062668;28;20027;-80
2021/12/11 12:35:20;;;;;;;;;;;2.40;99.90;;;;;;5064140;28;20330;-80
2021/12/11 12:37:47;;;;;;;;;;;2.40;99.90;;;;;;5064536;28;20391;-80
2021/12/11 12:40:16;;;;;;;;;;;2.40;99.90;;;;;;5064988;28;20409;-80
2021/12/11 12:42:51;;;;;;;;;;;2.40;99.90;;;;;;5056120;28;19936;-80
2021/12/11 12:45:21;;;;;;;;;;;2.40;99.90;;;;;;5057199;28;19924;-80
2021/12/11 12:47:51;;;;;;;;;;;2.40;99.90;;;;;;5061246;28;19924;-80
2021/12/11 12:50:21;;;;;;;;;;;2.40;99.90;;;;;;5067370;28;19928;-80
2021/12/11 12:52:48;;;;;;;;;;;2.40;99.90;;;;;;5066448;28;19974;-80
2021/12/11 12:55:16;;;;;;;;;;;2.40;99.90;;;;;;5060895;28;19924;-80
2021/12/11 12:57:44;;;;;;;;;;;2.40;99.90;;;;;;5065222;28;20405;-80
2021/12/11 13:00:15;;;;;;;;;;;2.40;99.90;;;;;;5066355;28;19928;-80
2021/12/11 13:02:42;;;;;;;;;;;2.40;99.90;;;;;;5060660;28;19929;-80
2021/12/11 13:05:11;;;;;;;;;;;2.40;99.90;;;;;;5062914;28;19964;-80
2021/12/11 13:07:40;;;;;;;;;;;2.40;99.90;;;;;;5058129;28;19924;-80
2021/12/11 13:10:13;;;;;;;;;;;2.40;99.90;;;;;;5064624;28;19978;-80
2021/12/11 13:12:42;;;;;;;;;;;2.40;99.90;;;;;;5064600;28;20302;-81
2021/12/11 13:15:12;;;;;;;;;;;2.40;99.90;;;;;;5064503;28;19924;-80
2021/12/11 13:17:40;;;;;;;;;;;2.40;99.90;;;;;;5058989;28;19925;-80
2021/12/11 13:20:09;;;;;;;;;;;2.40;99.90;;;;;;5050672;28;19925;-80
2021/12/11 13:22:37;;;;;;;;;;;2.40;99.90;;;;;;5061828;28;19928;-80
2021/12/11 13:25:09;;;;;;;;;;;2.40;99.90;;;;;;5059759;28;19931;-80
2021/12/11 13:27:36;;;;;;;;;;;2.40;99.90;;;;;;5058076;28;19929;-81
2021/12/11 13:30:06;;;;;;;;;;;2.40;99.90;;;;;;5064134;28;20682;-80
2021/12/11 13:32:33;;;;;;;;;;;2.40;99.90;;;;;;5080454;28;19924;-80
2021/12/11 13:35:02;;;;;;;;;;;2.40;99.90;;;;;;5065782;28;20299;-80
2021/12/11 13:37:30;;;;;;;;;;;2.40;99.90;;;;;;5066606;28;19931;-80
2021/12/11 13:39:57;;;;;;;;;;;2.40;99.90;;;;;;5057672;28;20007;-80
2021/12/11 13:42:27;;;;;;;;;;;2.50;99.90;;;;;;5064474;28;20400;-80
2021/12/11 13:44:56;;;;;;;;;;;2.40;99.90;;;;;;5063198;28;19934;-80
2021/12/11 13:47:24;;;;;;;;;;;2.40;99.90;;;;;;5061707;28;20297;-80
2021/12/11 13:49:51;;;;;;;;;;;2.40;99.90;;;;;;5066615;28;19924;-80
2021/12/11 13:52:19;;;;;;;;;;;2.40;99.90;;;;;;5061269;28;19933;-80
2021/12/11 13:54:46;;;;;;;;;;;2.40;99.90;;;;;;5064267;28;20888;-80
2021/12/11 13:57:16;;;;;;;;;;;2.40;99.90;;;;;;5068735;28;20406;-80
2021/12/11 13:59:45;;;;;;;;;;;2.40;99.90;;;;;;5062370;28;19924;-80
2021/12/11 14:02:14;;;;;;;;;;;2.50;99.90;;;;;;5063120;28;19987;-80
2021/12/11 14:04:42;;;;;;;;;;;2.40;99.90;;;;;;5067233;28;19967;-80
2021/12/11 14:07:14;;;;;;;;;;;2.40;99.90;;;;;;5066623;28;19950;-80
2021/12/11 14:09:42;;;;;;;;;;;2.50;99.90;;;;;;5061533;28;19948;-80
2021/12/11 14:12:10;;;;;;;;;;;2.50;99.90;;;;;;5065441;28;20356;-80
2021/12/11 14:14:38;;;;;;;;;;;2.40;99.90;;;;;;5067854;28;19975;-80
2021/12/11 14:17:06;;;;;;;;;;;2.40;99.90;;;;;;5059623;28;19924;-81
2021/12/11 14:19:33;;;;;;;;;;;2.40;99.90;;;;;;5060764;28;19928;-80
2021/12/11 14:22:01;;;;;;;;;;;2.40;99.90;;;;;;5064724;28;19928;-79
2021/12/11 14:24:28;;;;;;;;;;;2.40;99.90;;;;;;5063459;28;19932;-80
2021/12/11 14:26:56;;;;;;;;;;;2.50;99.90;;;;;;5061265;28;19929;-80
2021/12/11 14:29:23;;;;;;;;;;;2.40;99.90;;;;;;5066433;28;19925;-79
2021/12/11 14:31:50;;;;;;;;;;;2.40;99.90;;;;;;5066232;28;19929;-80
2021/12/11 14:34:18;;;;;;;;;;;2.40;99.90;;;;;;5064141;28;20222;-81
2021/12/11 14:36:45;;;;;;;;;;;2.40;99.90;;;;;;5061883;28;20035;-80
2021/12/11 14:39:14;;;;;;;;;;;2.40;99.90;;;;;;5060912;28;19947;-80
2021/12/11 14:41:42;;;;;;;;;;;2.40;99.90;;;;;;5064257;28;19924;-80
2021/12/11 14:44:11;;;;;;;;;;;2.40;99.90;;;;;;5062781;28;19972;-80
2021/12/11 14:46:38;;;;;;;;;;;2.50;99.90;;;;;;5067575;28;19960;-81